Terminal Aerodrome Forecast
Issued by NWS

Home | Current Version | Previous Version | Text Only | Print | Product List | Glossary On
Versions: 1 2 3 4 5 6 7 8 9 10 11 12 13
000
FTUS44 KMAF 031900 AAA
TAFHOB
TAF AMD
KHOB 031958Z 0320/0418 15011G19KT P6SM BKN100
     FM040400 13009KT P6SM OVC100
     FM041500 13014G20KT P6SM OVC050=

USA.gov is the U.S. government's official web portal to all federal, state and local government web resources and services.